createdAt,value
2018-01-15T05:00:42.695Z,0
2018-01-15T05:01:08.189Z,0
2018-01-15T05:01:33.671Z,0
2018-01-15T05:01:59.167Z,0
2018-01-15T05:02:24.631Z,0
2018-01-15T05:02:50.136Z,0
2018-01-15T05:03:15.656Z,0
2018-01-15T05:03:41.124Z,0
2018-01-15T05:04:06.628Z,0
2018-01-15T05:04:32.101Z,0
2018-01-15T05:04:57.568Z,0
2018-01-15T05:05:23.059Z,0
2018-01-15T05:05:48.559Z,0
2018-01-15T05:06:14.067Z,0
2018-01-15T05:06:39.601Z,0
2018-01-15T05:07:05.067Z,0
2018-01-15T05:07:30.583Z,0
2018-01-15T05:07:56.105Z,0
2018-01-15T05:08:21.572Z,0
2018-01-15T05:08:47.053Z,0
2018-01-15T05:09:12.553Z,0
2018-01-15T05:09:38.039Z,0
2018-01-15T05:10:03.537Z,0
2018-01-15T05:10:29.050Z,0
2018-01-15T05:10:54.532Z,0
2018-01-15T05:12:18.020Z,0
2018-01-15T05:12:43.518Z,0
2018-01-15T05:13:08.998Z,0
2018-01-15T05:13:34.482Z,0
2018-01-15T05:13:59.982Z,0
2018-01-15T05:14:25.472Z,0
2018-01-15T05:14:50.928Z,0
2018-01-15T05:15:16.416Z,0
2018-01-15T05:15:41.874Z,0
2018-01-15T05:16:07.372Z,0
2018-01-15T05:16:32.843Z,0
2018-01-15T05:17:51.291Z,0
2018-01-15T05:18:16.788Z,0
2018-01-15T05:18:42.256Z,0
2018-01-15T05:19:07.742Z,0
2018-01-15T05:19:33.226Z,0
2018-01-15T05:19:58.702Z,0
2018-01-15T05:21:06.896Z,0
2018-01-15T05:21:32.380Z,0
2018-01-15T05:21:57.857Z,0
2018-01-15T05:22:23.340Z,0
2018-01-15T05:22:48.819Z,0
2018-01-15T05:23:14.277Z,0
2018-01-15T05:23:39.782Z,0
2018-01-15T05:24:05.272Z,0
2018-01-15T05:24:30.767Z,0
2018-01-15T05:24:56.278Z,0
2018-01-15T05:25:21.764Z,0
2018-01-15T05:25:47.264Z,0
2018-01-15T05:26:12.724Z,0
2018-01-15T05:26:38.259Z,0
2018-01-15T05:27:03.769Z,0
2018-01-15T05:27:29.250Z,0
2018-01-15T05:27:54.755Z,0
2018-01-15T05:28:20.233Z,0
2018-01-15T05:28:45.756Z,0
2018-01-15T05:29:11.238Z,0
2018-01-15T05:29:36.694Z,0
2018-01-15T05:30:02.170Z,0
2018-01-15T05:30:27.636Z,0
2018-01-15T05:30:53.105Z,0
2018-01-15T05:31:18.586Z,0
2018-01-15T05:31:44.122Z,0
2018-01-15T05:32:09.607Z,0
2018-01-15T05:32:35.081Z,0
2018-01-15T05:33:00.584Z,0
2018-01-15T05:33:26.063Z,0
2018-01-15T05:33:51.555Z,0
2018-01-15T05:34:17.072Z,0
2018-01-15T05:35:36.038Z,0
2018-01-15T05:36:01.481Z,0
2018-01-15T05:36:26.962Z,0
2018-01-15T05:36:52.462Z,0
2018-01-15T05:37:56.066Z,0
2018-01-15T05:38:21.551Z,0
2018-01-15T05:38:47.032Z,0
2018-01-15T05:39:12.509Z,0
2018-01-15T05:39:37.967Z,0
2018-01-15T05:40:03.451Z,0
2018-01-15T05:40:28.916Z,0
2018-01-15T05:40:54.409Z,0
2018-01-15T05:41:19.897Z,0
2018-01-15T05:41:45.391Z,0
2018-01-15T05:42:10.882Z,0
2018-01-15T05:42:36.363Z,0
2018-01-15T05:43:01.877Z,0
2018-01-15T05:43:27.363Z,0
2018-01-15T05:43:52.907Z,0
2018-01-15T05:44:18.328Z,0
2018-01-15T05:44:43.774Z,0
2018-01-15T05:45:09.298Z,0
2018-01-15T05:45:34.761Z,0
2018-01-15T05:46:00.251Z,0
2018-01-15T05:46:25.703Z,0
2018-01-15T05:46:51.206Z,0
2018-01-15T05:47:16.711Z,0
2018-01-15T05:47:42.294Z,0
2018-01-15T05:48:07.780Z,0
2018-01-15T05:49:16.474Z,0
2018-01-15T05:49:41.978Z,0
2018-01-15T05:50:07.461Z,0
2018-01-15T05:50:32.946Z,0
2018-01-15T05:50:58.488Z,0
2018-01-15T05:51:23.989Z,0
2018-01-15T05:51:49.485Z,0
2018-01-15T05:52:58.201Z,0
2018-01-15T05:53:23.696Z,0
2018-01-15T05:53:49.173Z,0
2018-01-15T05:54:14.640Z,0
2018-01-15T05:55:38.823Z,0
2018-01-15T05:56:04.286Z,0
2018-01-15T05:56:29.767Z,0
2018-01-15T05:56:55.261Z,0
2018-01-15T05:57:20.731Z,0
2018-01-15T05:58:24.343Z,0
2018-01-15T05:58:49.845Z,0
2018-01-15T05:59:15.327Z,0
2018-01-15T05:59:40.820Z,0
2018-01-15T06:00:06.331Z,0
2018-01-15T06:00:31.806Z,0
2018-01-15T06:00:57.249Z,0
2018-01-15T06:01:22.801Z,0
2018-01-15T06:02:36.556Z,0
2018-01-15T06:03:02.092Z,0
2018-01-15T06:03:27.566Z,0
2018-01-15T06:03:53.041Z,0
2018-01-15T06:04:18.529Z,0
2018-01-15T06:04:44.019Z,0
2018-01-15T06:05:09.479Z,0
2018-01-15T06:05:34.989Z,0
2018-01-15T06:06:00.507Z,0
2018-01-15T06:06:26.002Z,0
2018-01-15T06:06:51.501Z,0
2018-01-15T06:07:16.982Z,0
2018-01-15T06:07:42.447Z,0
2018-01-15T06:08:07.924Z,0
2018-01-15T06:08:33.413Z,0
2018-01-15T06:09:57.426Z,0
2018-01-15T06:10:22.922Z,0
2018-01-15T06:10:48.448Z,0
2018-01-15T06:11:57.123Z,0
2018-01-15T06:12:22.654Z,0
2018-01-15T06:12:48.102Z,0
2018-01-15T06:13:13.637Z,0
2018-01-15T06:13:39.159Z,0
2018-01-15T06:14:04.643Z,0
2018-01-15T06:14:30.117Z,0
2018-01-15T06:14:55.588Z,0
2018-01-15T06:15:21.074Z,0
2018-01-15T06:15:46.594Z,0
2018-01-15T06:16:12.077Z,0
2018-01-15T06:16:37.581Z,0
2018-01-15T06:17:03.081Z,0
2018-01-15T06:17:28.569Z,0
2018-01-15T06:17:54.065Z,0
2018-01-15T06:18:19.565Z,0
2018-01-15T06:18:45.050Z,0
2018-01-15T06:19:10.569Z,0
2018-01-15T06:20:14.173Z,0
2018-01-15T06:20:39.654Z,0
2018-01-15T06:21:05.122Z,0
2018-01-15T06:21:30.609Z,0
2018-01-15T06:21:56.096Z,0
2018-01-15T06:22:21.566Z,0
2018-01-15T06:22:47.045Z,0
2018-01-15T06:23:12.523Z,0
2018-01-15T06:24:26.268Z,0
2018-01-15T06:24:51.794Z,0
2018-01-15T06:25:17.254Z,0
2018-01-15T06:25:42.698Z,0
2018-01-15T06:26:08.175Z,0
2018-01-15T06:26:33.711Z,0
2018-01-15T06:26:59.185Z,0
2018-01-15T06:27:24.695Z,0
2018-01-15T06:27:50.243Z,0
2018-01-15T06:28:15.714Z,0
2018-01-15T06:28:41.148Z,0
2018-01-15T06:29:06.655Z,0
2018-01-15T06:29:32.165Z,0
2018-01-15T06:29:57.648Z,0
2018-01-15T06:30:23.151Z,0
2018-01-15T06:30:48.616Z,0
2018-01-15T06:31:14.101Z,0
2018-01-15T06:31:39.595Z,0
2018-01-15T06:32:05.084Z,0
2018-01-15T06:32:30.600Z,0
2018-01-15T06:32:56.079Z,0
2018-01-15T06:33:21.599Z,0
2018-01-15T06:33:47.092Z,0
2018-01-15T06:34:12.539Z,0
2018-01-15T06:34:38.065Z,0
2018-01-15T06:35:03.548Z,0
2018-01-15T06:35:29.013Z,0
2018-01-15T06:35:54.544Z,0
2018-01-15T06:36:20.256Z,0
2018-01-15T06:36:45.992Z,0
2018-01-15T06:37:11.520Z,0
2018-01-15T06:37:37.084Z,0
2018-01-15T06:38:02.631Z,0
2018-01-15T06:38:28.098Z,0
2018-01-15T06:38:53.656Z,0
2018-01-15T06:39:19.164Z,0
2018-01-15T06:39:44.658Z,0
2018-01-15T06:40:10.125Z,0
2018-01-15T06:40:35.595Z,0
2018-01-15T06:41:01.078Z,0
2018-01-15T06:41:26.580Z,0
2018-01-15T06:41:52.046Z,0
2018-01-15T06:43:16.249Z,0
2018-01-15T06:43:41.741Z,0
2018-01-15T06:44:07.231Z,0
2018-01-15T06:44:32.748Z,0
2018-01-15T06:44:58.218Z,0
2018-01-15T06:45:23.704Z,0
2018-01-15T06:45:49.187Z,0
2018-01-15T06:46:14.666Z,0
2018-01-15T06:46:40.212Z,0
2018-01-15T06:47:05.678Z,0
2018-01-15T06:47:31.141Z,0
2018-01-15T06:47:56.650Z,0
2018-01-15T06:48:22.164Z,0
2018-01-15T06:48:47.662Z,0
2018-01-15T06:49:13.136Z,0
2018-01-15T06:50:21.817Z,0
2018-01-15T06:50:47.327Z,0
2018-01-15T06:51:12.807Z,0
2018-01-15T06:51:38.269Z,0
2018-01-15T06:52:52.062Z,0
2018-01-15T06:53:17.547Z,0
2018-01-15T06:53:43.020Z,0
2018-01-15T06:54:08.556Z,0
2018-01-15T06:54:34.043Z,0
2018-01-15T06:54:59.572Z,0
2018-01-15T06:55:25.057Z,0
2018-01-15T06:55:50.507Z,0
2018-01-15T06:56:15.982Z,0
2018-01-15T06:56:41.482Z,4
2018-01-15T06:57:50.151Z,4
2018-01-15T06:58:53.722Z,4
2018-01-15T06:59:19.203Z,0
2018-01-15T06:59:44.704Z,0
2018-01-15T07:00:10.196Z,0
2018-01-15T07:00:35.693Z,0
2018-01-15T07:01:01.210Z,4
2018-01-15T07:01:26.688Z,4
2018-01-15T07:01:52.207Z,4
2018-01-15T07:02:17.720Z,4
2018-01-15T07:02:43.198Z,4
2018-01-15T07:03:08.713Z,4
2018-01-15T07:03:34.184Z,4
2018-01-15T07:03:59.700Z,4
2018-01-15T07:04:25.163Z,4
2018-01-15T07:04:50.647Z,8
2018-01-15T07:05:16.102Z,4
2018-01-15T07:06:40.904Z,8
2018-01-15T07:07:06.418Z,8
2018-01-15T07:07:31.863Z,12
2018-01-15T07:07:57.330Z,8
2018-01-15T07:08:22.819Z,12
2018-01-15T07:08:48.269Z,8
2018-01-15T07:09:13.742Z,12
2018-01-15T07:09:39.211Z,12
2018-01-15T07:10:04.680Z,12
2018-01-15T07:10:30.187Z,16
2018-01-15T07:10:55.786Z,16
2018-01-15T07:11:21.205Z,16
2018-01-15T07:11:46.739Z,20
2018-01-15T07:12:12.230Z,20
2018-01-15T07:13:21.692Z,24
2018-01-15T07:13:47.187Z,28
2018-01-15T07:14:12.629Z,28
2018-01-15T07:14:38.075Z,28
2018-01-15T07:15:03.552Z,32
2018-01-15T07:15:29.023Z,32
2018-01-15T07:15:54.495Z,40
2018-01-15T07:16:19.967Z,40
2018-01-15T07:16:45.418Z,44
2018-01-15T07:17:10.909Z,44
2018-01-15T07:17:36.373Z,48
2018-01-15T07:18:01.797Z,52
2018-01-15T07:18:27.437Z,56
2018-01-15T07:18:52.944Z,60
2018-01-15T07:19:18.433Z,60
2018-01-15T07:19:43.862Z,60
2018-01-15T07:20:09.339Z,64
2018-01-15T07:21:28.243Z,76
2018-01-15T07:21:53.749Z,80
2018-01-15T07:22:19.217Z,80
2018-01-15T07:22:44.702Z,84
2018-01-15T07:23:10.165Z,92
2018-01-15T07:23:35.589Z,96
2018-01-15T07:24:01.076Z,100
2018-01-15T07:24:26.513Z,108
2018-01-15T07:24:51.984Z,112
2018-01-15T07:25:17.457Z,120
2018-01-15T07:25:42.942Z,128
2018-01-15T07:26:08.387Z,136
2018-01-15T07:26:33.843Z,140
2018-01-15T07:26:59.300Z,148
2018-01-15T07:27:24.760Z,152
2018-01-15T07:27:50.267Z,164
2018-01-15T07:28:15.693Z,168
2018-01-15T07:28:41.153Z,176
2018-01-15T07:29:06.626Z,180
2018-01-15T07:29:32.126Z,184
2018-01-15T07:29:57.587Z,196
2018-01-15T07:30:23.106Z,204
2018-01-15T07:30:48.613Z,208
2018-01-15T07:31:14.114Z,220
2018-01-15T07:31:39.619Z,228
2018-01-15T07:32:05.029Z,232
2018-01-15T07:32:30.477Z,236
2018-01-15T07:32:55.969Z,232
2018-01-15T07:33:21.451Z,220
2018-01-15T07:33:47.007Z,224
2018-01-15T07:34:12.515Z,228
2018-01-15T07:34:37.982Z,244
2018-01-15T07:35:03.428Z,252
2018-01-15T07:35:28.984Z,260
2018-01-15T07:35:54.392Z,272
2018-01-15T07:36:19.848Z,288
2018-01-15T07:36:45.334Z,292
2018-01-15T07:37:10.807Z,308
2018-01-15T07:37:36.412Z,312
2018-01-15T07:38:01.949Z,316
2018-01-15T07:38:27.468Z,312
2018-01-15T07:38:53.005Z,328
2018-01-15T07:39:18.764Z,336
2018-01-15T07:39:44.513Z,348
2018-01-15T07:40:10.356Z,368
2018-01-15T07:40:35.810Z,392
2018-01-15T07:41:01.274Z,404
2018-01-15T07:41:26.794Z,408
2018-01-15T07:41:52.278Z,412
2018-01-15T07:42:17.743Z,424
2018-01-15T07:42:43.264Z,436
2018-01-15T07:43:08.690Z,448
2018-01-15T07:43:34.153Z,460
2018-01-15T07:43:59.613Z,468
2018-01-15T07:44:25.080Z,468
2018-01-15T07:44:50.561Z,464
2018-01-15T07:45:16.019Z,464
2018-01-15T07:45:41.492Z,476
2018-01-15T07:46:06.991Z,496
2018-01-15T07:46:32.513Z,512
2018-01-15T07:46:57.940Z,544
2018-01-15T07:47:23.431Z,556
2018-01-15T07:47:48.865Z,564
2018-01-15T07:48:14.328Z,572
2018-01-15T07:48:39.798Z,576
2018-01-15T07:49:05.298Z,592
2018-01-15T07:49:30.779Z,596
2018-01-15T07:49:56.243Z,640
2018-01-15T07:50:21.779Z,648
2018-01-15T07:50:47.212Z,652
2018-01-15T07:51:12.686Z,644
2018-01-15T07:51:38.160Z,636
2018-01-15T07:52:03.637Z,648
2018-01-15T07:53:07.253Z,660
2018-01-15T07:53:32.750Z,664
2018-01-15T07:53:58.271Z,672
2018-01-15T07:54:23.701Z,684
2018-01-15T07:54:49.225Z,688
2018-01-15T07:55:14.655Z,692
2018-01-15T07:55:40.114Z,692
2018-01-15T07:56:05.600Z,692
2018-01-15T07:56:31.033Z,696
2018-01-15T07:56:56.511Z,704
2018-01-15T07:58:01.133Z,732
2018-01-15T07:58:26.599Z,732
2018-01-15T07:59:30.218Z,764
2018-01-15T07:59:55.673Z,784
2018-01-15T08:00:21.156Z,796
2018-01-15T08:00:46.672Z,800
2018-01-15T08:01:12.099Z,808
2018-01-15T08:01:37.529Z,820
2018-01-15T08:03:01.565Z,836
2018-01-15T08:03:27.058Z,840
2018-01-15T08:03:52.519Z,848
2018-01-15T08:04:17.998Z,844
2018-01-15T08:04:43.461Z,848
2018-01-15T08:05:08.918Z,848
2018-01-15T08:05:34.377Z,860
2018-01-15T08:05:59.949Z,868
2018-01-15T08:06:25.457Z,848
2018-01-15T08:06:50.923Z,844
2018-01-15T08:07:16.406Z,844
2018-01-15T08:07:41.904Z,848
2018-01-15T08:08:07.361Z,836
2018-01-15T08:08:32.813Z,848
2018-01-15T08:09:36.432Z,872
2018-01-15T08:10:01.912Z,884
2018-01-15T08:11:05.500Z,920
2018-01-15T08:11:30.993Z,940
2018-01-15T08:11:56.499Z,952
2018-01-15T08:12:21.973Z,944
2018-01-15T08:12:47.439Z,948
2018-01-15T08:13:12.901Z,944
2018-01-15T08:13:38.301Z,952
2018-01-15T08:14:03.741Z,960
2018-01-15T08:14:29.225Z,976
2018-01-15T08:14:54.680Z,984
2018-01-15T08:15:20.129Z,996
2018-01-15T08:15:45.584Z,1012
2018-01-15T08:16:59.377Z,992
2018-01-15T08:17:24.854Z,1004
2018-01-15T08:17:50.322Z,1012
2018-01-15T08:19:04.059Z,1032
2018-01-15T08:19:29.530Z,1028
2018-01-15T08:19:55.027Z,1020
2018-01-15T08:20:20.457Z,1024
2018-01-15T08:20:45.951Z,1016
2018-01-15T08:21:11.388Z,1020
2018-01-15T08:21:36.845Z,1024
2018-01-15T08:22:02.348Z,1036
2018-01-15T08:22:27.803Z,1044
2018-01-15T08:22:53.238Z,1044
2018-01-15T08:23:18.703Z,1048
2018-01-15T08:23:44.268Z,1056
2018-01-15T08:24:09.632Z,1060
2018-01-15T08:24:35.190Z,1064
2018-01-15T08:25:00.640Z,1076
2018-01-15T08:25:26.120Z,1084
2018-01-15T08:26:45.073Z,1112
2018-01-15T08:27:10.523Z,1124
2018-01-15T08:27:36.015Z,1136
2018-01-15T08:28:01.489Z,1148
2018-01-15T08:28:26.916Z,1160
2018-01-15T08:28:52.383Z,1176
2018-01-15T08:29:17.816Z,1184
2018-01-15T08:29:43.249Z,1200
2018-01-15T08:30:08.702Z,1212
2018-01-15T08:30:34.182Z,1224
2018-01-15T08:30:59.689Z,1236
2018-01-15T08:31:25.168Z,1248
2018-01-15T08:32:44.026Z,1284
2018-01-15T08:33:09.561Z,1292
2018-01-15T08:33:35.045Z,1308
2018-01-15T08:34:00.500Z,1316
2018-01-15T08:34:26.012Z,1328
2018-01-15T08:34:51.437Z,1340
2018-01-15T08:35:16.933Z,1352
2018-01-15T08:35:42.372Z,1364
2018-01-15T08:36:07.823Z,1376
2018-01-15T08:36:33.302Z,1384
2018-01-15T08:36:58.747Z,1392
2018-01-15T08:38:02.344Z,1388
2018-01-15T08:38:27.848Z,1384
2018-01-15T08:38:53.299Z,1380
2018-01-15T08:39:18.766Z,1372
2018-01-15T08:39:44.235Z,1360
2018-01-15T08:40:09.693Z,1356
2018-01-15T08:40:35.164Z,1344
2018-01-15T08:41:00.638Z,1316
2018-01-15T08:41:26.102Z,1288
2018-01-15T08:41:51.559Z,1268
2018-01-15T08:42:17.052Z,1248
2018-01-15T08:42:42.512Z,1244
2018-01-15T08:43:08.027Z,1236
2018-01-15T08:43:33.479Z,1220
2018-01-15T08:43:58.961Z,1200
2018-01-15T08:44:24.415Z,1180
2018-01-15T08:44:49.905Z,1200
2018-01-15T08:45:15.371Z,1220
2018-01-15T08:45:40.827Z,1232
2018-01-15T08:46:06.293Z,1288
2018-01-15T08:46:31.745Z,1312
2018-01-15T08:46:57.195Z,1336
2018-01-15T08:47:22.663Z,1364
2018-01-15T08:47:48.151Z,1388
2018-01-15T08:48:13.603Z,1408
2018-01-15T08:48:39.043Z,1416
2018-01-15T08:49:04.528Z,1436
2018-01-15T08:49:30.008Z,1460
2018-01-15T08:49:55.474Z,1468
2018-01-15T08:50:20.930Z,1456
2018-01-15T08:50:46.362Z,1452
2018-01-15T08:51:11.812Z,1472
2018-01-15T08:51:37.307Z,1496
2018-01-15T08:52:02.727Z,1496
2018-01-15T08:52:28.177Z,1476
2018-01-15T08:52:53.674Z,1472
2018-01-15T08:53:19.136Z,1464
2018-01-15T08:53:44.587Z,1476
2018-01-15T08:55:03.516Z,1488
2018-01-15T08:55:28.986Z,1488
2018-01-15T08:55:54.502Z,1528
2018-01-15T08:56:19.951Z,1556
2018-01-15T08:57:38.852Z,1524
2018-01-15T08:58:04.318Z,1504
2018-01-15T08:58:29.888Z,1536
2018-01-15T08:58:55.268Z,1580
2018-01-15T08:59:20.721Z,1596
2018-01-15T08:59:46.191Z,1620
2018-01-15T09:00:11.678Z,1656
2018-01-15T09:01:15.301Z,1744
2018-01-15T09:01:40.771Z,1748
2018-01-15T09:02:06.217Z,1752
2018-01-15T09:02:31.677Z,1784
2018-01-15T09:02:57.191Z,1832
2018-01-15T09:03:22.615Z,1888
2018-01-15T09:03:48.098Z,1868
2018-01-15T09:04:13.552Z,1896
2018-01-15T09:04:39.001Z,1944
2018-01-15T09:05:04.444Z,1972
2018-01-15T09:06:08.063Z,1960
2018-01-15T09:06:33.522Z,1956
2018-01-15T09:06:58.981Z,1952
2018-01-15T09:07:24.430Z,1960
2018-01-15T09:07:49.919Z,1916
2018-01-15T09:08:15.376Z,1880
2018-01-15T09:08:40.865Z,1868
2018-01-15T09:09:06.318Z,1864
2018-01-15T09:09:31.801Z,1848
2018-01-15T09:09:57.267Z,1892
2018-01-15T09:10:22.784Z,1932
2018-01-15T09:10:48.259Z,1968
2018-01-15T09:11:13.716Z,1952
2018-01-15T09:11:39.202Z,1892
2018-01-15T09:12:04.625Z,1852
2018-01-15T09:12:30.107Z,1836
2018-01-15T09:12:55.554Z,1864
2018-01-15T09:13:21.006Z,1928
2018-01-15T09:13:46.481Z,1952
2018-01-15T09:14:12.010Z,1920
2018-01-15T09:14:37.457Z,1936
2018-01-15T09:15:02.934Z,1972
2018-01-15T09:15:28.425Z,1996
2018-01-15T09:15:53.864Z,2012
2018-01-15T09:16:19.356Z,1984
2018-01-15T09:17:22.973Z,1912
2018-01-15T09:17:48.457Z,1904
2018-01-15T09:18:13.951Z,1844
2018-01-15T09:18:39.406Z,1808
2018-01-15T09:19:43.050Z,1852
2018-01-15T09:20:08.539Z,1884
2018-01-15T09:20:34.013Z,1868
2018-01-15T09:20:59.514Z,1844
2018-01-15T09:21:24.975Z,1848
2018-01-15T09:21:50.405Z,1884
2018-01-15T09:22:15.858Z,1904
2018-01-15T09:22:41.366Z,1912
2018-01-15T09:23:06.797Z,1924
2018-01-15T09:23:32.261Z,1964
2018-01-15T09:23:57.711Z,2032
2018-01-15T09:24:23.192Z,2100
2018-01-15T09:24:48.688Z,2196
2018-01-15T09:25:14.188Z,2288
2018-01-15T09:25:39.698Z,2376
2018-01-15T09:26:05.172Z,2444
2018-01-15T09:26:30.626Z,2524
2018-01-15T09:26:56.096Z,2604
2018-01-15T09:27:21.593Z,2664
2018-01-15T09:27:47.044Z,2704
2018-01-15T09:28:12.501Z,2736
2018-01-15T09:28:37.957Z,2760
2018-01-15T09:29:03.448Z,2780
2018-01-15T09:29:28.916Z,2804
2018-01-15T09:29:54.390Z,2828
2018-01-15T09:30:19.826Z,2856
2018-01-15T09:30:45.288Z,2876
2018-01-15T09:31:10.742Z,2900
2018-01-15T09:31:36.216Z,2916
2018-01-15T09:32:01.727Z,2944
2018-01-15T09:32:27.191Z,2968
2018-01-15T09:33:40.964Z,3036
2018-01-15T09:34:06.452Z,3064
2018-01-15T09:34:31.884Z,3092
2018-01-15T09:34:57.405Z,3116
2018-01-15T09:35:22.842Z,3144
2018-01-15T09:35:48.303Z,3168
2018-01-15T09:36:13.761Z,3196
2018-01-15T09:36:39.226Z,3220
2018-01-15T09:37:04.712Z,3244
2018-01-15T09:37:30.161Z,3268
2018-01-15T09:37:55.614Z,3288
2018-01-15T09:38:21.106Z,3308
2018-01-15T09:38:46.555Z,3324
2018-01-15T09:39:12.014Z,3344
2018-01-15T09:39:37.480Z,3360
2018-01-15T09:40:02.946Z,3372
2018-01-15T09:40:28.401Z,3388
2018-01-15T09:40:53.879Z,3396
2018-01-15T09:41:19.339Z,3408
2018-01-15T09:41:44.814Z,3416
2018-01-15T09:42:10.260Z,3420
2018-01-15T09:42:35.706Z,3420
2018-01-15T09:43:01.159Z,3420
2018-01-15T09:43:26.608Z,3412
2018-01-15T09:43:52.113Z,3400
2018-01-15T09:44:17.582Z,3388
2018-01-15T09:44:43.016Z,3376
2018-01-15T09:45:08.479Z,3356
2018-01-15T09:45:33.923Z,3340
2018-01-15T09:45:59.365Z,3324
2018-01-15T09:46:24.838Z,3304
2018-01-15T09:46:50.291Z,3284
2018-01-15T09:47:15.724Z,3260
2018-01-15T09:48:19.325Z,3196
2018-01-15T09:48:44.831Z,3176
2018-01-15T09:49:10.341Z,3160
2018-01-15T09:49:35.825Z,3156
2018-01-15T09:50:01.316Z,3148
2018-01-15T09:50:26.752Z,3132
2018-01-15T09:50:52.309Z,3120
2018-01-15T09:51:17.778Z,3108
2018-01-15T09:51:43.215Z,3084
2018-01-15T09:52:08.671Z,3048
2018-01-15T09:53:33.421Z,2912
2018-01-15T09:53:58.896Z,2876
2018-01-15T09:54:24.380Z,2848
2018-01-15T09:54:49.841Z,2820
2018-01-15T09:55:15.316Z,2804
2018-01-15T09:55:40.773Z,2792
2018-01-15T09:57:04.709Z,2852
2018-01-15T09:57:30.204Z,2876
2018-01-15T09:57:55.698Z,2892
2018-01-15T09:58:21.142Z,2904
2018-01-15T09:58:46.621Z,2904
2018-01-15T09:59:12.065Z,2896
2018-01-15T09:59:37.523Z,2892
2018-01-15T10:00:03.022Z,2884
2018-01-15T10:00:28.481Z,2872
2018-01-15T10:00:53.950Z,2860
2018-01-15T10:01:19.425Z,2848
2018-01-15T10:01:44.873Z,2844
2018-01-15T10:02:10.334Z,2868
2018-01-15T10:02:35.796Z,2896
2018-01-15T10:03:01.192Z,2936
2018-01-15T10:03:26.666Z,2992
2018-01-15T10:03:52.207Z,3068
2018-01-15T10:04:17.578Z,3148
2018-01-15T10:04:43.032Z,3236
2018-01-15T10:05:08.489Z,3320
2018-01-15T10:05:33.974Z,3400
2018-01-15T10:05:59.423Z,3476
2018-01-15T10:06:24.888Z,3552
2018-01-15T10:06:50.369Z,3632
2018-01-15T10:07:15.807Z,3716
2018-01-15T10:08:19.458Z,3936
2018-01-15T10:08:44.889Z,4032
2018-01-15T10:09:53.580Z,4312
2018-01-15T10:10:19.047Z,4404
2018-01-15T10:10:44.540Z,4488
2018-01-15T10:11:09.984Z,4568
2018-01-15T10:11:35.451Z,4640
2018-01-15T10:12:00.907Z,4684
2018-01-15T10:12:26.390Z,4712
2018-01-15T10:12:51.855Z,4732
2018-01-15T10:13:17.311Z,4740
2018-01-15T10:13:42.801Z,4740
2018-01-15T10:15:01.800Z,4692
2018-01-15T10:15:27.237Z,4676
2018-01-15T10:15:52.722Z,4656
2018-01-15T10:16:18.215Z,4644
2018-01-15T10:16:43.679Z,4624
2018-01-15T10:17:09.176Z,4604
2018-01-15T10:18:12.786Z,4516
2018-01-15T10:18:38.264Z,4476
2018-01-15T10:19:03.771Z,4424
2018-01-15T10:19:29.257Z,4372
2018-01-15T10:19:54.719Z,4316
2018-01-15T10:20:20.169Z,4260
2018-01-15T10:20:45.640Z,4192
2018-01-15T10:21:11.078Z,4132
2018-01-15T10:22:30.036Z,3908
2018-01-15T10:22:55.527Z,3820
2018-01-15T10:23:21.010Z,3732
2018-01-15T10:23:46.493Z,3644
2018-01-15T10:24:11.977Z,3564
2018-01-15T10:24:37.443Z,3492
2018-01-15T10:25:02.925Z,3428
2018-01-15T10:25:28.408Z,3364
2018-01-15T10:25:54.026Z,3320
2018-01-15T10:26:19.557Z,3288
2018-01-15T10:27:33.950Z,3252
2018-01-15T10:27:59.526Z,3248
2018-01-15T10:28:25.059Z,3252
2018-01-15T10:28:50.519Z,3260
2018-01-15T10:29:16.049Z,3272
2018-01-15T10:29:41.541Z,3280
2018-01-15T10:30:07.046Z,3292
2018-01-15T10:30:32.537Z,3312
2018-01-15T10:30:58.055Z,3324
2018-01-15T10:31:23.535Z,3340
2018-01-15T10:32:37.339Z,3380
2018-01-15T10:33:02.845Z,3404
2018-01-15T10:33:28.330Z,3420
2018-01-15T10:33:53.827Z,3428
2018-01-15T10:34:19.413Z,3428
2018-01-15T10:34:44.922Z,3412
2018-01-15T10:35:10.466Z,3396
2018-01-15T10:35:35.954Z,3376
2018-01-15T10:36:01.407Z,3336
2018-01-15T10:36:26.884Z,3296
2018-01-15T10:36:52.345Z,3248
2018-01-15T10:37:17.812Z,3204
2018-01-15T10:37:43.299Z,3164
2018-01-15T10:38:08.776Z,3132
2018-01-15T10:39:22.562Z,3060
2018-01-15T10:39:48.051Z,3052
2018-01-15T10:40:13.584Z,3056
2018-01-15T10:40:39.021Z,3064
2018-01-15T10:41:42.624Z,3112
2018-01-15T10:42:08.101Z,3136
2018-01-15T10:42:33.603Z,3164
2018-01-15T10:42:59.100Z,3188
2018-01-15T10:43:24.566Z,3212
2018-01-15T10:43:50.123Z,3240
2018-01-15T10:44:15.514Z,3276
2018-01-15T10:44:40.997Z,3308
2018-01-15T10:45:06.461Z,3344
2018-01-15T10:45:31.959Z,3368
2018-01-15T10:45:57.416Z,3396
2018-01-15T10:46:22.872Z,3416
2018-01-15T10:46:48.351Z,3428
2018-01-15T10:47:13.878Z,3432
2018-01-15T10:47:39.371Z,3420
2018-01-15T10:48:04.893Z,3412
2018-01-15T10:48:30.368Z,3396
2018-01-15T10:48:55.867Z,3380
2018-01-15T10:49:21.384Z,3364
2018-01-15T10:49:46.881Z,3340
2018-01-15T10:50:12.388Z,3304
2018-01-15T10:50:37.891Z,3264
2018-01-15T10:51:03.378Z,3216
2018-01-15T10:51:28.873Z,3156
2018-01-15T10:51:54.374Z,3096
2018-01-15T10:52:19.860Z,3036
2018-01-15T10:52:45.353Z,2980
2018-01-15T10:53:10.861Z,2928
2018-01-15T10:53:36.343Z,2900
2018-01-15T10:54:01.841Z,2872
2018-01-15T10:54:27.288Z,2868
2018-01-15T10:54:52.809Z,2868
2018-01-15T10:55:18.262Z,2876
2018-01-15T10:55:43.731Z,2888
2018-01-15T10:56:47.596Z,2936
2018-01-15T10:57:13.051Z,2964
2018-01-15T10:57:38.544Z,2984
2018-01-15T10:58:04.085Z,3008
2018-01-15T10:58:29.591Z,3032
2018-01-15T10:58:55.118Z,3056
2018-01-15T10:59:20.636Z,3084
2018-01-15T10:59:46.107Z,3112
2018-01-15T11:00:11.642Z,3144
2018-01-15T11:00:37.116Z,3176
2018-01-15T11:01:02.607Z,3200
2018-01-15T11:01:28.119Z,3216
2018-01-15T11:01:53.565Z,3220
2018-01-15T11:02:19.049Z,3220
2018-01-15T11:02:44.520Z,3212
2018-01-15T11:03:10.001Z,3196
2018-01-15T11:03:35.510Z,3172
2018-01-15T11:04:01.040Z,3152
2018-01-15T11:04:26.533Z,3132
2018-01-15T11:04:52.054Z,3112
2018-01-15T11:05:17.497Z,3096
2018-01-15T11:06:36.469Z,3092
2018-01-15T11:07:01.955Z,3108
2018-01-15T11:07:27.422Z,3128
2018-01-15T11:07:52.899Z,3152
2018-01-15T11:08:18.386Z,3176
2018-01-15T11:08:43.910Z,3196
2018-01-15T11:09:09.389Z,3220
2018-01-15T11:09:34.830Z,3244
2018-01-15T11:10:00.287Z,3276
2018-01-15T11:10:25.774Z,3304
2018-01-15T11:10:51.268Z,3332
2018-01-15T11:11:16.782Z,3348
2018-01-15T11:11:42.313Z,3364
2018-01-15T11:12:07.817Z,3376
2018-01-15T11:12:33.298Z,3388
2018-01-15T11:12:58.760Z,3404
2018-01-15T11:13:24.305Z,3412
2018-01-15T11:13:49.776Z,3424
2018-01-15T11:14:15.229Z,3440
2018-01-15T11:14:40.716Z,3456
2018-01-15T11:15:06.203Z,3472
2018-01-15T11:15:31.679Z,3496
2018-01-15T11:16:50.756Z,3568
2018-01-15T11:17:16.234Z,3604
2018-01-15T11:17:41.721Z,3632
2018-01-15T11:18:07.213Z,3668
2018-01-15T11:18:32.773Z,3700
2018-01-15T11:18:58.238Z,3736
2018-01-15T11:19:23.722Z,3764
2018-01-15T11:19:49.198Z,3788
2018-01-15T11:20:14.623Z,3808
2018-01-15T11:20:40.157Z,3828
2018-01-15T11:21:05.655Z,3856
2018-01-15T11:21:31.129Z,3884
2018-01-15T11:22:34.729Z,3996
2018-01-15T11:23:00.235Z,4060
2018-01-15T11:23:25.706Z,4132
2018-01-15T11:23:51.368Z,4200
2018-01-15T11:24:16.811Z,4260
2018-01-15T11:24:42.283Z,4304
2018-01-15T11:25:07.808Z,4348
2018-01-15T11:25:33.244Z,4388
2018-01-15T11:25:58.717Z,4420
2018-01-15T11:26:24.200Z,4440
2018-01-15T11:26:49.681Z,4456
2018-01-15T11:27:15.217Z,4476
2018-01-15T11:27:40.630Z,4492
2018-01-15T11:28:06.088Z,4500
2018-01-15T11:28:31.533Z,4520
2018-01-15T11:28:57.014Z,4544
2018-01-15T11:29:22.510Z,4572
2018-01-15T11:29:47.956Z,4604
2018-01-15T11:30:13.418Z,4640
2018-01-15T11:30:38.893Z,4680
2018-01-15T11:31:04.363Z,4720
2018-01-15T11:31:29.817Z,4764
2018-01-15T11:31:55.284Z,4796
2018-01-15T11:32:20.741Z,4824
2018-01-15T11:32:46.179Z,4836
2018-01-15T11:33:11.715Z,4844
2018-01-15T11:33:37.137Z,4832
2018-01-15T11:34:02.594Z,4804
2018-01-15T11:34:28.054Z,4764
2018-01-15T11:34:53.521Z,4708
2018-01-15T11:35:18.981Z,4640
2018-01-15T11:35:44.441Z,4572
2018-01-15T11:36:09.895Z,4500
2018-01-15T11:36:35.359Z,4432